sensor_id;sensor_type;location;lat;lon;timestamp;P1;durP1;ratioP1;P2;durP2;ratioP2
70951;SDS011;69214;55.880;37.542;2023-09-30T00:01:02;9.55;;;3.70;;
70951;SDS011;69214;55.880;37.542;2023-09-30T00:03:28;7.73;;;3.33;;
70951;SDS011;69214;55.880;37.542;2023-09-30T00:05:54;11.52;;;3.83;;
70951;SDS011;69214;55.880;37.542;2023-09-30T00:08:20;8.07;;;4.05;;
70951;SDS011;69214;55.880;37.542;2023-09-30T00:10:46;9.73;;;3.90;;
70951;SDS011;69214;55.880;37.542;2023-09-30T00:13:13;11.97;;;4.33;;
70951;SDS011;69214;55.880;37.542;2023-09-30T00:15:38;10.73;;;4.25;;
70951;SDS011;69214;55.880;37.542;2023-09-30T00:18:06;12.85;;;4.15;;
70951;SDS011;69214;55.880;37.542;2023-09-30T00:20:32;10.77;;;4.60;;
70951;SDS011;69214;55.880;37.542;2023-09-30T00:22:57;12.85;;;3.90;;
70951;SDS011;69214;55.880;37.542;2023-09-30T00:25:23;12.60;;;4.18;;
70951;SDS011;69214;55.880;37.542;2023-09-30T00:27:49;8.50;;;3.80;;
70951;SDS011;69214;55.880;37.542;2023-09-30T00:30:15;12.60;;;4.55;;
70951;SDS011;69214;55.880;37.542;2023-09-30T00:32:42;8.40;;;4.38;;
70951;SDS011;69214;55.880;37.542;2023-09-30T00:35:08;13.90;;;4.43;;
70951;SDS011;69214;55.880;37.542;2023-09-30T00:37:39;9.87;;;4.17;;
70951;SDS011;69214;55.880;37.542;2023-09-30T00:40:06;9.48;;;4.40;;
70951;SDS011;69214;55.880;37.542;2023-09-30T00:42:38;11.25;;;4.57;;
70951;SDS011;69214;55.880;37.542;2023-09-30T00:45:05;11.10;;;4.60;;
70951;SDS011;69214;55.880;37.542;2023-09-30T00:47:33;13.25;;;4.75;;
70951;SDS011;69214;55.880;37.542;2023-09-30T00:49:59;13.23;;;4.70;;
70951;SDS011;69214;55.880;37.542;2023-09-30T00:52:26;9.85;;;4.40;;
70951;SDS011;69214;55.880;37.542;2023-09-30T00:54:53;11.90;;;4.68;;
70951;SDS011;69214;55.880;37.542;2023-09-30T00:57:20;12.23;;;4.65;;
70951;SDS011;69214;55.880;37.542;2023-09-30T00:59:47;14.07;;;4.70;;
70951;SDS011;69214;55.880;37.542;2023-09-30T01:02:17;10.50;;;4.87;;
70951;SDS011;69214;55.880;37.542;2023-09-30T01:04:44;10.15;;;4.50;;
70951;SDS011;69214;55.880;37.542;2023-09-30T01:07:10;11.10;;;4.75;;
70951;SDS011;69214;55.880;37.542;2023-09-30T01:09:37;11.73;;;4.88;;
70951;SDS011;69214;55.880;37.542;2023-09-30T01:12:04;13.00;;;4.70;;
70951;SDS011;69214;55.880;37.542;2023-09-30T01:14:32;9.60;;;4.63;;
70951;SDS011;69214;55.880;37.542;2023-09-30T01:17:04;12.23;;;4.38;;
70951;SDS011;69214;55.880;37.542;2023-09-30T01:19:34;12.73;;;4.50;;
70951;SDS011;69214;55.880;37.542;2023-09-30T01:22:01;11.30;;;4.70;;
70951;SDS011;69214;55.880;37.542;2023-09-30T01:24:39;13.25;;;4.70;;
70951;SDS011;69214;55.880;37.542;2023-09-30T01:27:07;13.80;;;4.67;;
70951;SDS011;69214;55.880;37.542;2023-09-30T01:29:36;12.13;;;4.95;;
70951;SDS011;69214;55.880;37.542;2023-09-30T01:32:05;10.82;;;4.60;;
70951;SDS011;69214;55.880;37.542;2023-09-30T01:34:35;9.80;;;4.43;;
70951;SDS011;69214;55.880;37.542;2023-09-30T01:37:03;11.18;;;4.82;;
70951;SDS011;69214;55.880;37.542;2023-09-30T01:39:29;11.43;;;4.50;;
70951;SDS011;69214;55.880;37.542;2023-09-30T01:41:59;9.85;;;4.32;;
70951;SDS011;69214;55.880;37.542;2023-09-30T01:44:24;9.75;;;4.32;;
70951;SDS011;69214;55.880;37.542;2023-09-30T01:46:51;15.20;;;5.10;;
70951;SDS011;69214;55.880;37.542;2023-09-30T01:49:17;9.32;;;4.57;;
70951;SDS011;69214;55.880;37.542;2023-09-30T01:51:49;9.70;;;4.27;;
70951;SDS011;69214;55.880;37.542;2023-09-30T01:54:15;11.60;;;4.35;;
70951;SDS011;69214;55.880;37.542;2023-09-30T01:56:41;11.10;;;4.57;;
70951;SDS011;69214;55.880;37.542;2023-09-30T01:59:08;10.40;;;4.28;;
70951;SDS011;69214;55.880;37.542;2023-09-30T02:01:34;12.45;;;4.82;;
70951;SDS011;69214;55.880;37.542;2023-09-30T02:04:00;14.37;;;4.97;;
70951;SDS011;69214;55.880;37.542;2023-09-30T02:06:25;9.68;;;4.05;;
70951;SDS011;69214;55.880;37.542;2023-09-30T02:08:52;10.55;;;5.00;;
70951;SDS011;69214;55.880;37.542;2023-09-30T02:11:17;12.53;;;4.90;;
70951;SDS011;69214;55.880;37.542;2023-09-30T02:13:43;12.15;;;4.38;;
70951;SDS011;69214;55.880;37.542;2023-09-30T02:16:11;12.95;;;5.00;;
70951;SDS011;69214;55.880;37.542;2023-09-30T02:18:40;12.63;;;4.57;;
70951;SDS011;69214;55.880;37.542;2023-09-30T02:21:07;9.35;;;4.38;;
70951;SDS011;69214;55.880;37.542;2023-09-30T02:23:34;12.50;;;4.55;;
70951;SDS011;69214;55.880;37.542;2023-09-30T02:26:01;12.32;;;4.60;;
70951;SDS011;69214;55.880;37.542;2023-09-30T02:28:28;11.02;;;4.78;;
70951;SDS011;69214;55.880;37.542;2023-09-30T02:30:58;11.43;;;4.30;;
70951;SDS011;69214;55.880;37.542;2023-09-30T02:33:25;10.05;;;4.60;;
70951;SDS011;69214;55.880;37.542;2023-09-30T02:35:51;14.40;;;4.88;;
70951;SDS011;69214;55.880;37.542;2023-09-30T02:38:18;11.88;;;4.75;;
70951;SDS011;69214;55.880;37.542;2023-09-30T02:40:47;11.80;;;4.70;;
70951;SDS011;69214;55.880;37.542;2023-09-30T02:43:14;11.60;;;4.93;;
70951;SDS011;69214;55.880;37.542;2023-09-30T02:45:40;10.80;;;4.65;;
70951;SDS011;69214;55.880;37.542;2023-09-30T02:48:06;12.82;;;4.78;;
70951;SDS011;69214;55.880;37.542;2023-09-30T02:50:34;15.65;;;4.38;;
70951;SDS011;69214;55.880;37.542;2023-09-30T02:53:00;10.38;;;4.07;;
70951;SDS011;69214;55.880;37.542;2023-09-30T02:55:26;9.37;;;4.00;;
70951;SDS011;69214;55.880;37.542;2023-09-30T02:57:52;9.07;;;4.40;;
70951;SDS011;69214;55.880;37.542;2023-09-30T03:00:18;10.27;;;4.57;;
70951;SDS011;69214;55.880;37.542;2023-09-30T03:02:52;8.07;;;4.00;;
70951;SDS011;69214;55.880;37.542;2023-09-30T03:05:19;9.80;;;4.47;;
70951;SDS011;69214;55.880;37.542;2023-09-30T03:07:46;12.60;;;4.40;;
70951;SDS011;69214;55.880;37.542;2023-09-30T03:10:13;12.15;;;4.70;;
70951;SDS011;69214;55.880;37.542;2023-09-30T03:12:49;11.20;;;4.35;;
70951;SDS011;69214;55.880;37.542;2023-09-30T03:15:16;10.53;;;4.43;;
70951;SDS011;69214;55.880;37.542;2023-09-30T03:17:42;11.52;;;4.57;;
70951;SDS011;69214;55.880;37.542;2023-09-30T03:20:09;11.35;;;3.97;;
70951;SDS011;69214;55.880;37.542;2023-09-30T03:22:40;11.18;;;4.07;;
70951;SDS011;69214;55.880;37.542;2023-09-30T03:25:09;11.02;;;4.28;;
70951;SDS011;69214;55.880;37.542;2023-09-30T03:27:38;10.97;;;4.20;;
70951;SDS011;69214;55.880;37.542;2023-09-30T03:30:04;15.63;;;4.50;;
70951;SDS011;69214;55.880;37.542;2023-09-30T03:32:32;10.30;;;4.70;;
70951;SDS011;69214;55.880;37.542;2023-09-30T03:34:59;9.52;;;4.07;;
70951;SDS011;69214;55.880;37.542;2023-09-30T03:37:27;12.02;;;4.43;;
70951;SDS011;69214;55.880;37.542;2023-09-30T03:39:54;10.33;;;4.40;;
70951;SDS011;69214;55.880;37.542;2023-09-30T03:42:21;13.70;;;4.20;;
70951;SDS011;69214;55.880;37.542;2023-09-30T03:44:47;13.23;;;4.47;;
70951;SDS011;69214;55.880;37.542;2023-09-30T03:47:15;9.25;;;4.20;;
70951;SDS011;69214;55.880;37.542;2023-09-30T03:49:41;13.20;;;5.00;;
70951;SDS011;69214;55.880;37.542;2023-09-30T03:52:11;9.73;;;4.00;;
70951;SDS011;69214;55.880;37.542;2023-09-30T03:54:37;12.57;;;4.43;;
70951;SDS011;69214;55.880;37.542;2023-09-30T03:57:03;11.45;;;4.25;;
70951;SDS011;69214;55.880;37.542;2023-09-30T03:59:29;9.60;;;4.47;;
70951;SDS011;69214;55.880;37.542;2023-09-30T04:01:56;10.82;;;4.53;;
70951;SDS011;69214;55.880;37.542;2023-09-30T04:04:24;10.07;;;4.40;;
70951;SDS011;69214;55.880;37.542;2023-09-30T04:06:51;10.85;;;4.30;;
70951;SDS011;69214;55.880;37.542;2023-09-30T04:09:17;10.90;;;4.50;;
70951;SDS011;69214;55.880;37.542;2023-09-30T04:11:44;13.35;;;4.28;;
70951;SDS011;69214;55.880;37.542;2023-09-30T04:14:10;11.77;;;4.33;;
70951;SDS011;69214;55.880;37.542;2023-09-30T04:16:36;9.98;;;3.90;;
70951;SDS011;69214;55.880;37.542;2023-09-30T04:19:03;9.48;;;3.97;;
70951;SDS011;69214;55.880;37.542;2023-09-30T04:21:30;10.18;;;4.45;;
70951;SDS011;69214;55.880;37.542;2023-09-30T04:24:00;8.83;;;3.50;;
70951;SDS011;69214;55.880;37.542;2023-09-30T04:26:26;10.20;;;4.30;;
70951;SDS011;69214;55.880;37.542;2023-09-30T04:28:52;9.98;;;4.13;;
70951;SDS011;69214;55.880;37.542;2023-09-30T04:31:19;10.27;;;3.35;;
70951;SDS011;69214;55.880;37.542;2023-09-30T04:33:48;7.75;;;3.70;;
70951;SDS011;69214;55.880;37.542;2023-09-30T04:36:14;8.63;;;3.10;;
70951;SDS011;69214;55.880;37.542;2023-09-30T04:38:40;9.75;;;3.60;;
70951;SDS011;69214;55.880;37.542;2023-09-30T04:41:06;7.85;;;3.53;;
70951;SDS011;69214;55.880;37.542;2023-09-30T04:43:33;10.65;;;3.92;;
70951;SDS011;69214;55.880;37.542;2023-09-30T04:46:00;10.17;;;3.57;;
70951;SDS011;69214;55.880;37.542;2023-09-30T04:48:27;9.18;;;3.72;;
70951;SDS011;69214;55.880;37.542;2023-09-30T04:50:54;10.32;;;3.55;;
70951;SDS011;69214;55.880;37.542;2023-09-30T04:53:20;9.27;;;3.50;;
70951;SDS011;69214;55.880;37.542;2023-09-30T04:55:49;7.78;;;3.47;;
70951;SDS011;69214;55.880;37.542;2023-09-30T04:58:16;7.57;;;3.17;;
70951;SDS011;69214;55.880;37.542;2023-09-30T05:00:42;6.38;;;3.00;;
70951;SDS011;69214;55.880;37.542;2023-09-30T05:03:09;8.57;;;2.88;;
70951;SDS011;69214;55.880;37.542;2023-09-30T05:05:35;9.30;;;3.53;;
70951;SDS011;69214;55.880;37.542;2023-09-30T05:08:01;9.18;;;2.88;;
70951;SDS011;69214;55.880;37.542;2023-09-30T05:10:27;6.30;;;2.90;;
70951;SDS011;69214;55.880;37.542;2023-09-30T05:12:53;6.38;;;3.03;;
70951;SDS011;69214;55.880;37.542;2023-09-30T05:15:20;7.45;;;3.05;;
70951;SDS011;69214;55.880;37.542;2023-09-30T05:17:48;6.05;;;2.90;;
70951;SDS011;69214;55.880;37.542;2023-09-30T05:20:15;7.07;;;3.00;;
70951;SDS011;69214;55.880;37.542;2023-09-30T05:22:46;6.05;;;3.10;;
70951;SDS011;69214;55.880;37.542;2023-09-30T05:25:13;5.25;;;2.70;;
70951;SDS011;69214;55.880;37.542;2023-09-30T05:27:45;7.65;;;2.58;;
70951;SDS011;69214;55.880;37.542;2023-09-30T05:30:14;7.78;;;3.08;;
70951;SDS011;69214;55.880;37.542;2023-09-30T05:32:42;6.57;;;2.63;;
70951;SDS011;69214;55.880;37.542;2023-09-30T05:35:08;5.90;;;3.00;;
70951;SDS011;69214;55.880;37.542;2023-09-30T05:37:39;6.68;;;2.70;;
70951;SDS011;69214;55.880;37.542;2023-09-30T05:40:06;10.43;;;3.05;;
70951;SDS011;69214;55.880;37.542;2023-09-30T05:42:45;7.47;;;3.05;;
70951;SDS011;69214;55.880;37.542;2023-09-30T05:45:11;5.60;;;2.90;;
70951;SDS011;69214;55.880;37.542;2023-09-30T05:47:38;5.40;;;2.80;;
70951;SDS011;69214;55.880;37.542;2023-09-30T05:50:06;8.38;;;3.25;;
70951;SDS011;69214;55.880;37.542;2023-09-30T05:52:32;5.50;;;2.85;;
70951;SDS011;69214;55.880;37.542;2023-09-30T05:54:58;8.32;;;3.20;;
70951;SDS011;69214;55.880;37.542;2023-09-30T05:57:26;7.93;;;3.00;;
70951;SDS011;69214;55.880;37.542;2023-09-30T05:59:52;5.65;;;3.15;;
70951;SDS011;69214;55.880;37.542;2023-09-30T06:02:18;8.50;;;3.50;;
70951;SDS011;69214;55.880;37.542;2023-09-30T06:04:45;5.50;;;3.03;;
70951;SDS011;69214;55.880;37.542;2023-09-30T06:07:11;5.50;;;3.17;;
70951;SDS011;69214;55.880;37.542;2023-09-30T06:09:37;7.82;;;2.92;;
70951;SDS011;69214;55.880;37.542;2023-09-30T06:12:04;5.72;;;3.42;;
70951;SDS011;69214;55.880;37.542;2023-09-30T06:14:32;7.07;;;3.30;;
70951;SDS011;69214;55.880;37.542;2023-09-30T06:16:58;7.25;;;3.40;;
70951;SDS011;69214;55.880;37.542;2023-09-30T06:19:24;9.23;;;3.50;;
70951;SDS011;69214;55.880;37.542;2023-09-30T06:21:51;7.07;;;3.53;;
70951;SDS011;69214;55.880;37.542;2023-09-30T06:24:17;6.97;;;3.72;;
70951;SDS011;69214;55.880;37.542;2023-09-30T06:26:46;6.50;;;3.67;;
70951;SDS011;69214;55.880;37.542;2023-09-30T06:29:14;6.18;;;3.80;;
70951;SDS011;69214;55.880;37.542;2023-09-30T06:31:40;6.60;;;3.63;;
70951;SDS011;69214;55.880;37.542;2023-09-30T06:34:06;6.95;;;3.50;;
70951;SDS011;69214;55.880;37.542;2023-09-30T06:36:32;6.45;;;3.78;;
70951;SDS011;69214;55.880;37.542;2023-09-30T06:38:58;9.48;;;3.55;;
70951;SDS011;69214;55.880;37.542;2023-09-30T06:41:24;8.37;;;3.90;;
70951;SDS011;69214;55.880;37.542;2023-09-30T06:43:51;7.60;;;4.10;;
70951;SDS011;69214;55.880;37.542;2023-09-30T06:46:17;7.22;;;3.85;;
70951;SDS011;69214;55.880;37.542;2023-09-30T06:48:43;8.30;;;4.00;;
70951;SDS011;69214;55.880;37.542;2023-09-30T06:51:13;8.15;;;3.85;;
70951;SDS011;69214;55.880;37.542;2023-09-30T06:53:43;7.70;;;4.47;;
70951;SDS011;69214;55.880;37.542;2023-09-30T06:56:11;10.80;;;3.90;;
70951;SDS011;69214;55.880;37.542;2023-09-30T06:58:38;6.68;;;4.40;;
70951;SDS011;69214;55.880;37.542;2023-09-30T07:01:04;7.63;;;3.63;;
70951;SDS011;69214;55.880;37.542;2023-09-30T07:03:30;8.77;;;4.05;;
70951;SDS011;69214;55.880;37.542;2023-09-30T07:05:58;8.37;;;4.13;;
70951;SDS011;69214;55.880;37.542;2023-09-30T07:08:27;6.78;;;4.53;;
70951;SDS011;69214;55.880;37.542;2023-09-30T07:10:56;7.82;;;4.72;;
70951;SDS011;69214;55.880;37.542;2023-09-30T07:13:22;7.50;;;4.45;;
70951;SDS011;69214;55.880;37.542;2023-09-30T07:15:48;7.85;;;4.45;;
70951;SDS011;69214;55.880;37.542;2023-09-30T07:18:15;7.33;;;4.40;;
70951;SDS011;69214;55.880;37.542;2023-09-30T07:20:40;9.95;;;4.60;;
70951;SDS011;69214;55.880;37.542;2023-09-30T07:23:06;7.47;;;4.30;;
70951;SDS011;69214;55.880;37.542;2023-09-30T07:25:34;7.43;;;4.23;;
70951;SDS011;69214;55.880;37.542;2023-09-30T07:28:00;8.82;;;4.75;;
70951;SDS011;69214;55.880;37.542;2023-09-30T07:30:27;7.30;;;4.93;;
70951;SDS011;69214;55.880;37.542;2023-09-30T07:32:53;9.45;;;4.90;;
70951;SDS011;69214;55.880;37.542;2023-09-30T07:35:18;9.37;;;4.60;;
70951;SDS011;69214;55.880;37.542;2023-09-30T07:37:44;6.32;;;4.10;;
70951;SDS011;69214;55.880;37.542;2023-09-30T07:40:11;9.93;;;4.68;;
70951;SDS011;69214;55.880;37.542;2023-09-30T07:42:38;8.82;;;4.35;;
70951;SDS011;69214;55.880;37.542;2023-09-30T07:45:04;6.83;;;4.30;;
70951;SDS011;69214;55.880;37.542;2023-09-30T07:47:32;8.20;;;3.97;;
70951;SDS011;69214;55.880;37.542;2023-09-30T07:50:00;8.00;;;4.15;;
70951;SDS011;69214;55.880;37.542;2023-09-30T07:52:31;9.50;;;4.43;;
70951;SDS011;69214;55.880;37.542;2023-09-30T07:54:58;7.53;;;4.38;;
70951;SDS011;69214;55.880;37.542;2023-09-30T07:57:24;8.15;;;4.15;;
70951;SDS011;69214;55.880;37.542;2023-09-30T07:59:50;6.50;;;3.43;;
70951;SDS011;69214;55.880;37.542;2023-09-30T08:02:16;8.02;;;3.75;;
70951;SDS011;69214;55.880;37.542;2023-09-30T08:04:43;8.50;;;3.50;;
70951;SDS011;69214;55.880;37.542;2023-09-30T08:07:09;8.40;;;3.33;;
70951;SDS011;69214;55.880;37.542;2023-09-30T08:09:35;7.78;;;3.10;;
70951;SDS011;69214;55.880;37.542;2023-09-30T08:12:02;6.97;;;3.63;;
70951;SDS011;69214;55.880;37.542;2023-09-30T08:14:30;6.55;;;3.20;;
70951;SDS011;69214;55.880;37.542;2023-09-30T08:16:55;7.73;;;3.23;;
70951;SDS011;69214;55.880;37.542;2023-09-30T08:19:21;7.40;;;3.08;;
70951;SDS011;69214;55.880;37.542;2023-09-30T08:21:49;7.15;;;3.53;;
70951;SDS011;69214;55.880;37.542;2023-09-30T08:24:14;6.65;;;3.10;;
70951;SDS011;69214;55.880;37.542;2023-09-30T08:26:40;7.93;;;3.50;;
70951;SDS011;69214;55.880;37.542;2023-09-30T08:29:06;5.90;;;3.17;;
70951;SDS011;69214;55.880;37.542;2023-09-30T08:31:32;6.43;;;2.80;;
70951;SDS011;69214;55.880;37.542;2023-09-30T08:33:58;6.67;;;2.80;;
70951;SDS011;69214;55.880;37.542;2023-09-30T08:36:24;6.83;;;2.80;;
70951;SDS011;69214;55.880;37.542;2023-09-30T08:38:50;8.63;;;2.80;;
70951;SDS011;69214;55.880;37.542;2023-09-30T08:41:24;6.38;;;2.95;;
70951;SDS011;69214;55.880;37.542;2023-09-30T08:43:59;11.80;;;5.10;;
70951;SDS011;69214;55.880;37.542;2023-09-30T08:46:28;7.07;;;2.90;;
70951;SDS011;69214;55.880;37.542;2023-09-30T08:49:00;7.95;;;3.22;;
70951;SDS011;69214;55.880;37.542;2023-09-30T08:51:28;7.90;;;3.17;;
70951;SDS011;69214;55.880;37.542;2023-09-30T08:53:55;7.72;;;2.22;;
70951;SDS011;69214;55.880;37.542;2023-09-30T08:56:28;7.10;;;3.20;;
70951;SDS011;69214;55.880;37.542;2023-09-30T08:59:00;6.27;;;2.87;;
70951;SDS011;69214;55.880;37.542;2023-09-30T09:01:28;8.15;;;2.60;;
70951;SDS011;69214;55.880;37.542;2023-09-30T09:03:55;7.55;;;2.83;;
70951;SDS011;69214;55.880;37.542;2023-09-30T09:06:22;5.53;;;2.60;;
70951;SDS011;69214;55.880;37.542;2023-09-30T09:08:50;9.88;;;2.72;;
70951;SDS011;69214;55.880;37.542;2023-09-30T09:11:16;7.27;;;2.70;;
70951;SDS011;69214;55.880;37.542;2023-09-30T09:13:47;3.88;;;2.03;;
70951;SDS011;69214;55.880;37.542;2023-09-30T09:16:21;6.47;;;2.25;;
70951;SDS011;69214;55.880;37.542;2023-09-30T09:18:49;5.10;;;2.15;;
70951;SDS011;69214;55.880;37.542;2023-09-30T09:21:16;6.28;;;2.42;;
70951;SDS011;69214;55.880;37.542;2023-09-30T09:23:46;6.83;;;2.40;;
70951;SDS011;69214;55.880;37.542;2023-09-30T09:26:23;7.13;;;2.80;;
70951;SDS011;69214;55.880;37.542;2023-09-30T09:28:56;5.82;;;2.38;;
70951;SDS011;69214;55.880;37.542;2023-09-30T09:31:27;8.65;;;2.17;;
70951;SDS011;69214;55.880;37.542;2023-09-30T09:33:54;5.78;;;2.50;;
70951;SDS011;69214;55.880;37.542;2023-09-30T09:36:20;7.57;;;2.50;;
70951;SDS011;69214;55.880;37.542;2023-09-30T09:38:47;6.20;;;2.40;;
70951;SDS011;69214;55.880;37.542;2023-09-30T09:41:15;5.70;;;2.40;;
70951;SDS011;69214;55.880;37.542;2023-09-30T09:43:42;6.30;;;2.10;;
70951;SDS011;69214;55.880;37.542;2023-09-30T09:46:09;5.15;;;2.15;;
70951;SDS011;69214;55.880;37.542;2023-09-30T09:48:36;7.27;;;2.10;;
70951;SDS011;69214;55.880;37.542;2023-09-30T09:51:02;6.57;;;2.17;;
70951;SDS011;69214;55.880;37.542;2023-09-30T09:53:30;5.85;;;2.47;;
70951;SDS011;69214;55.880;37.542;2023-09-30T09:56:01;5.65;;;2.50;;
70951;SDS011;69214;55.880;37.542;2023-09-30T09:58:29;6.50;;;2.55;;
70951;SDS011;69214;55.880;37.542;2023-09-30T10:00:59;5.40;;;2.00;;
70951;SDS011;69214;55.880;37.542;2023-09-30T10:03:26;7.10;;;2.63;;
70951;SDS011;69214;55.880;37.542;2023-09-30T10:05:52;5.95;;;2.40;;
70951;SDS011;69214;55.880;37.542;2023-09-30T10:08:20;5.97;;;2.47;;
70951;SDS011;69214;55.880;37.542;2023-09-30T10:10:48;7.07;;;2.27;;
70951;SDS011;69214;55.880;37.542;2023-09-30T10:13:57;4.93;;;2.38;;
70951;SDS011;69214;55.880;37.542;2023-09-30T10:21:39;6.07;;;2.65;;
70951;SDS011;69214;55.880;37.542;2023-09-30T10:27:35;4.82;;;2.58;;
70951;SDS011;69214;55.880;37.542;2023-09-30T10:29:48;5.57;;;2.63;;
70951;SDS011;69214;55.880;37.542;2023-09-30T10:32:22;5.60;;;2.38;;
70951;SDS011;69214;55.880;37.542;2023-09-30T10:34:49;6.68;;;2.67;;
70951;SDS011;69214;55.880;37.542;2023-09-30T10:37:20;6.40;;;2.67;;
70951;SDS011;69214;55.880;37.542;2023-09-30T10:50:59;7.30;;;2.90;;
70951;SDS011;69214;55.880;37.542;2023-09-30T10:53:27;7.70;;;2.70;;
70951;SDS011;69214;55.880;37.542;2023-09-30T10:55:54;5.95;;;2.55;;
70951;SDS011;69214;55.880;37.542;2023-09-30T10:58:43;7.22;;;2.75;;
70951;SDS011;69214;55.880;37.542;2023-09-30T11:01:12;7.95;;;3.20;;
70951;SDS011;69214;55.880;37.542;2023-09-30T11:03:40;4.97;;;2.43;;
70951;SDS011;69214;55.880;37.542;2023-09-30T11:06:07;6.10;;;3.15;;
70951;SDS011;69214;55.880;37.542;2023-09-30T11:08:33;6.43;;;2.65;;
70951;SDS011;69214;55.880;37.542;2023-09-30T11:11:02;7.22;;;2.45;;
70951;SDS011;69214;55.880;37.542;2023-09-30T11:13:31;6.55;;;2.78;;
70951;SDS011;69214;55.880;37.542;2023-09-30T11:16:03;6.97;;;2.40;;
70951;SDS011;69214;55.880;37.542;2023-09-30T11:18:35;7.70;;;2.60;;
70951;SDS011;69214;55.880;37.542;2023-09-30T11:21:10;7.10;;;2.90;;
70951;SDS011;69214;55.880;37.542;2023-09-30T11:23:38;6.18;;;2.72;;
70951;SDS011;69214;55.880;37.542;2023-09-30T11:26:06;6.25;;;2.65;;
70951;SDS011;69214;55.880;37.542;2023-09-30T11:28:36;6.90;;;2.60;;
70951;SDS011;69214;55.880;37.542;2023-09-30T11:31:07;5.50;;;2.38;;
70951;SDS011;69214;55.880;37.542;2023-09-30T11:33:49;6.03;;;2.40;;
70951;SDS011;69214;55.880;37.542;2023-09-30T11:36:17;6.68;;;3.05;;
70951;SDS011;69214;55.880;37.542;2023-09-30T11:38:45;6.05;;;2.40;;
70951;SDS011;69214;55.880;37.542;2023-09-30T11:41:13;5.37;;;2.17;;
70951;SDS011;69214;55.880;37.542;2023-09-30T11:43:39;4.55;;;2.05;;
70951;SDS011;69214;55.880;37.542;2023-09-30T11:46:23;6.68;;;2.38;;
70951;SDS011;69214;55.880;37.542;2023-09-30T11:48:56;5.55;;;2.30;;
70951;SDS011;69214;55.880;37.542;2023-09-30T11:51:25;6.45;;;2.28;;
70951;SDS011;69214;55.880;37.542;2023-09-30T11:53:52;5.77;;;2.20;;
70951;SDS011;69214;55.880;37.542;2023-09-30T11:56:20;7.95;;;2.50;;
70951;SDS011;69214;55.880;37.542;2023-09-30T11:58:47;7.50;;;2.28;;
70951;SDS011;69214;55.880;37.542;2023-09-30T12:01:15;6.00;;;2.42;;
70951;SDS011;69214;55.880;37.542;2023-09-30T12:03:41;11.37;;;2.27;;
70951;SDS011;69214;55.880;37.542;2023-09-30T12:06:08;7.10;;;2.43;;
70951;SDS011;69214;55.880;37.542;2023-09-30T12:08:39;5.38;;;2.22;;
70951;SDS011;69214;55.880;37.542;2023-09-30T12:11:05;6.57;;;2.15;;
70951;SDS011;69214;55.880;37.542;2023-09-30T12:13:31;5.05;;;2.17;;
70951;SDS011;69214;55.880;37.542;2023-09-30T12:15:57;6.10;;;2.30;;
70951;SDS011;69214;55.880;37.542;2023-09-30T12:18:23;5.13;;;2.05;;
70951;SDS011;69214;55.880;37.542;2023-09-30T12:20:50;7.55;;;2.40;;
70951;SDS011;69214;55.880;37.542;2023-09-30T12:23:19;7.18;;;2.30;;
70951;SDS011;69214;55.880;37.542;2023-09-30T12:25:48;6.73;;;2.50;;
70951;SDS011;69214;55.880;37.542;2023-09-30T12:28:14;6.40;;;2.35;;
70951;SDS011;69214;55.880;37.542;2023-09-30T12:30:40;4.43;;;1.90;;
70951;SDS011;69214;55.880;37.542;2023-09-30T12:33:07;6.53;;;2.03;;
70951;SDS011;69214;55.880;37.542;2023-09-30T12:35:33;9.13;;;2.38;;
70951;SDS011;69214;55.880;37.542;2023-09-30T12:37:59;5.40;;;2.23;;
70951;SDS011;69214;55.880;37.542;2023-09-30T12:40:25;5.15;;;2.22;;
70951;SDS011;69214;55.880;37.542;2023-09-30T12:42:51;7.25;;;2.53;;
70951;SDS011;69214;55.880;37.542;2023-09-30T12:45:17;6.43;;;2.17;;
70951;SDS011;69214;55.880;37.542;2023-09-30T12:47:43;5.18;;;2.08;;
70951;SDS011;69214;55.880;37.542;2023-09-30T12:50:11;9.38;;;2.78;;
70951;SDS011;69214;55.880;37.542;2023-09-30T12:52:37;5.95;;;2.30;;
70951;SDS011;69214;55.880;37.542;2023-09-30T12:55:04;5.25;;;2.35;;
70951;SDS011;69214;55.880;37.542;2023-09-30T12:57:31;4.50;;;2.00;;
70951;SDS011;69214;55.880;37.542;2023-09-30T12:59:57;7.32;;;2.13;;
70951;SDS011;69214;55.880;37.542;2023-09-30T13:02:23;6.40;;;2.45;;
70951;SDS011;69214;55.880;37.542;2023-09-30T13:04:49;7.10;;;2.30;;
70951;SDS011;69214;55.880;37.542;2023-09-30T13:07:15;5.47;;;2.20;;
70951;SDS011;69214;55.880;37.542;2023-09-30T13:09:41;6.40;;;2.33;;
70951;SDS011;69214;55.880;37.542;2023-09-30T13:12:08;6.05;;;2.47;;
70951;SDS011;69214;55.880;37.542;2023-09-30T13:14:34;7.13;;;2.10;;
70951;SDS011;69214;55.880;37.542;2023-09-30T13:17:00;6.55;;;2.22;;
70951;SDS011;69214;55.880;37.542;2023-09-30T13:19:29;7.03;;;2.65;;
70951;SDS011;69214;55.880;37.542;2023-09-30T13:21:55;7.80;;;2.60;;
70951;SDS011;69214;55.880;37.542;2023-09-30T13:24:22;7.32;;;2.63;;
70951;SDS011;69214;55.880;37.542;2023-09-30T13:26:48;7.07;;;2.50;;
70951;SDS011;69214;55.880;37.542;2023-09-30T13:29:17;5.43;;;2.20;;
70951;SDS011;69214;55.880;37.542;2023-09-30T13:31:43;5.57;;;2.33;;
70951;SDS011;69214;55.880;37.542;2023-09-30T13:34:10;6.28;;;2.67;;
70951;SDS011;69214;55.880;37.542;2023-09-30T13:36:38;7.03;;;2.67;;
70951;SDS011;69214;55.880;37.542;2023-09-30T13:39:04;7.57;;;2.70;;
70951;SDS011;69214;55.880;37.542;2023-09-30T13:41:33;4.82;;;2.30;;
70951;SDS011;69214;55.880;37.542;2023-09-30T13:44:01;10.43;;;2.80;;
70951;SDS011;69214;55.880;37.542;2023-09-30T13:46:27;7.03;;;2.40;;
70951;SDS011;69214;55.880;37.542;2023-09-30T13:48:53;8.38;;;2.95;;
70951;SDS011;69214;55.880;37.542;2023-09-30T13:51:19;6.37;;;2.57;;
70951;SDS011;69214;55.880;37.542;2023-09-30T13:53:45;6.20;;;2.50;;
70951;SDS011;69214;55.880;37.542;2023-09-30T13:56:11;7.97;;;2.70;;
70951;SDS011;69214;55.880;37.542;2023-09-30T13:58:37;7.03;;;2.50;;
70951;SDS011;69214;55.880;37.542;2023-09-30T14:01:03;7.80;;;2.38;;
70951;SDS011;69214;55.880;37.542;2023-09-30T14:03:29;7.72;;;3.00;;
70951;SDS011;69214;55.880;37.542;2023-09-30T14:05:55;5.93;;;2.63;;
70951;SDS011;69214;55.880;37.542;2023-09-30T14:08:24;5.93;;;2.30;;
70951;SDS011;69214;55.880;37.542;2023-09-30T14:10:50;7.88;;;2.75;;
70951;SDS011;69214;55.880;37.542;2023-09-30T14:13:19;8.02;;;2.88;;
70951;SDS011;69214;55.880;37.542;2023-09-30T14:15:45;6.53;;;2.75;;
70951;SDS011;69214;55.880;37.542;2023-09-30T14:18:12;6.33;;;2.20;;
70951;SDS011;69214;55.880;37.542;2023-09-30T14:20:38;7.32;;;2.70;;
70951;SDS011;69214;55.880;37.542;2023-09-30T14:23:05;7.40;;;2.72;;
70951;SDS011;69214;55.880;37.542;2023-09-30T14:25:31;6.68;;;2.83;;
70951;SDS011;69214;55.880;37.542;2023-09-30T14:27:57;8.30;;;2.37;;
70951;SDS011;69214;55.880;37.542;2023-09-30T14:30:25;5.18;;;2.20;;
70951;SDS011;69214;55.880;37.542;2023-09-30T14:32:51;7.65;;;2.38;;
70951;SDS011;69214;55.880;37.542;2023-09-30T14:35:17;5.38;;;2.80;;
70951;SDS011;69214;55.880;37.542;2023-09-30T14:37:44;5.73;;;2.33;;
70951;SDS011;69214;55.880;37.542;2023-09-30T14:40:10;5.60;;;2.40;;
70951;SDS011;69214;55.880;37.542;2023-09-30T14:42:39;7.47;;;2.80;;
70951;SDS011;69214;55.880;37.542;2023-09-30T14:45:07;7.50;;;2.70;;
70951;SDS011;69214;55.880;37.542;2023-09-30T14:47:34;6.10;;;2.72;;
70951;SDS011;69214;55.880;37.542;2023-09-30T14:50:00;6.97;;;2.57;;
70951;SDS011;69214;55.880;37.542;2023-09-30T14:52:30;8.45;;;2.90;;